Sant Just Desvern, Spain
Current Conditions -  °F | °C
As of 9:00 PM on Wednesday 28 Jan 2015 (Local Time) from LEBL Reporting Station
Few Clouds Few Clouds  
Wind Chill: 46°   Ceiling: Unl
Heat Index: 46°   Visibility: 6mi
Dew Point: 39°   Wind: 1mph
Humidity: 76%   Direction: 280°W
Pressure: 30.09"   Gusts: NA
Location:  41.39°N, 2.08°E
Report Text: LEBL 282000Z 28001KT 9999 FEW025 08/04 Q1019 NOSIG
Loading
Personal Weather Stations






























Interactive Weather Map New forecast layout! Learn more

10-Day Weather Forecast

Advertisements
Track Severe Weather on mobile